New Swindon Half Marathon
Skip Navigation Links
Results
Live Leaderboard
Previous Races
Race Stats
Smartphone Results App.
9 Sep 2018
HyperLink
Click on your name for more detaild race data
Page 1 of 39 (1928 items)
[1]234567...36373839
Pos
Bib No
Fav
Share
Print
Video
Name
Time
Chip Time *
Category
Cat Pos
Gender
Gen Pos
Club
Pace
12479Matthew CLOWES1:06:00.61:06:00.3Top 31Male1CARDIFF AAC11.9 m/hr
22133Ben COLE1:10:19.41:10:18.5Top 32Male2SWINDON HARRIERS11.2 m/hr
3374Daniel JONES1:13:39.11:13:38.5Top 33Male3TEAM BATH ATHLETICS CLUB10.7 m/hr
41757Dan THOMAS1:14:33.91:14:33.1SenM1Male4CHELTENHAM AND COUNTY HARRIERS10.5 m/hr
52353Luke HANSON1:16:36.91:16:35.8SenM2Male5NAILSEA RUNNING CLUB10.3 m/hr
6161Matt EDMONDS1:17:03.01:17:01.6SenM3Male6HASTINGS RUNNERS10.2 m/hr
72492Conor SHOEMARK1:17:35.11:17:34.0SenM4Male7BOURTON ROAD RUNNERS10.1 m/hr
8720David SIRRELLE1:17:45.61:17:44.4SenM5Male8SWINDON HARRIERS10.1 m/hr
9403Chris ROXBURGH1:17:54.61:17:54.1SenM6Male9AVON VALLEY RUNNERS10.1 m/hr
102352Ben HAGGITT1:18:33.11:18:28.0SenM7Male10 10.0 m/hr
11310Andrew GARDINER1:19:13.81:19:12.1SenM8Male11SLINN ALLSTARS 9.9 m/hr
122122Luke BYRNE1:19:39.91:19:36.5SenM9Male12SWINDON HARRIERS 9.9 m/hr
132269Dennis WALMSLEY1:19:54.81:19:53.1MV501Male13NORTH COTSWOLD TRI & RUN 9.8 m/hr
14550Alex SMITH1:20:03.41:20:01.2SenM10Male14SLINN ALLSTARS 9.8 m/hr
15529Stuart TEMPLE1:20:06.81:20:02.7SenM11Male15SLINN ALLSTARS 9.8 m/hr
161625Ben GREGORY1:20:09.31:20:06.9SenM12Male16ROYAL WOOTTON BASSETT HOUNDS RC 9.8 m/hr
172295Russell BROOKS1:20:38.11:20:34.4SenM13Male17  9.8 m/hr
181985Adam GILES1:21:02.71:21:00.5SenM14Male18ROYAL WOOTTON BASSETT HOUNDS RC 9.7 m/hr
19498Craig HALLETT1:21:14.81:21:11.5SenM15Male19ROYAL WOOTTON BASSETT HOUNDS RC 9.7 m/hr
201978Charlie GREEN1:21:35.81:21:28.5SenM16Male20CITY OF YORK AC 9.6 m/hr
21235Simon GALLIMORE1:21:51.11:21:43.9SenM17Male21  9.6 m/hr
222127Courtenay CHESSELL 1:22:12.41:22:12.2SenM18Male22  9.6 m/hr
23222Rob BROWN1:22:17.01:22:15.3SenM19Male23CIRENCESTER AC 9.6 m/hr
242107Serane STONE1:22:40.61:22:39.5Top 31Female1TIVERTON HARRIERS 9.5 m/hr
252176Omer HOMER1:22:49.81:22:49.2SenM20Male24SWINDON SHIN SPLINTS 9.5 m/hr
262466Jeffrey TRYBUS1:23:41.21:23:38.4SenM21Male25CHERWELL RUNNERS & JOGGERS 9.4 m/hr
27148Bob DICKINSON1:23:46.61:23:43.2SenM22Male26  9.4 m/hr
282428Andy RAYNOR1:23:54.51:23:51.2SenM23Male27FOREST OF DEAN AC 9.4 m/hr
292136Martin CRANE1:24:06.11:24:02.5MV401Male28BEARBROOK RUNNING CLUB 9.4 m/hr
302473Lee WEST1:24:16.91:24:09.6MV402Male29  9.3 m/hr
31232Fee MAYCOCK1:24:29.91:24:27.4Top 32Female2CHELTENHAM AND COUNTY HARRIERS 9.3 m/hr
321171Michael TUNE1:24:43.01:24:39.2MV502Male30SWINDON HARRIERS 9.3 m/hr
332044Chris FURNESS1:24:55.61:24:51.1MV403Male31BASINGSTOKE & MID HANTS AC 9.3 m/hr
34129Tara GROSVENOR1:25:01.51:24:58.7Top 33Female3CHELTENHAM AND COUNTY HARRIERS 9.3 m/hr
351292Damien GRACE1:25:42.11:25:41.9SenM24Male32  9.2 m/hr
362436Dave ROLLS1:25:48.11:25:43.6MV404Male33  9.2 m/hr
372362Scott HOPKINS1:25:52.51:25:46.0SenM25Male34  9.2 m/hr
38111Andrew HOMERSKI1:26:21.81:26:13.6MV503Male35  9.1 m/hr
391755Oliver COOKE1:26:37.51:26:35.9SenM26Male36SWINDON HARRIERS 9.1 m/hr
42342Chris TILLEY1:26:49.51:26:36.7SenM27Male39  9.1 m/hr
40989Nick MCCORMACK1:26:43.41:26:39.8MV504Male37SWINDON HARRIERS 9.1 m/hr
411800Andrew JACK1:26:44.31:26:42.1MV405Male38ROYAL WOOTTON BASSETT HOUNDS RC 9.1 m/hr
431908Matt WHEATLEY1:26:50.01:26:42.9MV406Male40  9.1 m/hr
442408Catie O'DONOGHUE1:26:50.61:26:49.0SenF1Female4BRISTOL AND WEST AC (EST. 1882) 9.1 m/hr
45717Ben LINES1:27:01.91:26:57.9SenM28Male41  9.0 m/hr
46295Tom COOPER1:27:18.31:27:15.3SenM29Male42RUNNING SOMEWHERE ELSE 9.0 m/hr
47790Simon JELL1:27:18.31:27:18.2SenM30Male43SWINDON HARRIERS 9.0 m/hr
482476Matthew WRAGG1:27:30.71:27:27.6SenM31Male44MARLBOROUGH RUNNING CLUB 9.0 m/hr
491258Barrie BROWN1:27:38.41:27:36.0MV407Male45ROYAL WOOTTON BASSETT HOUNDS RC 9.0 m/hr
502457Inigo SURGUY1:27:43.41:27:37.9MV408Male46HEADINGTON RR 9.0 m/hr
Page 1 of 39 (1928 items)
[1]234567...36373839
fb

HyperLink Copyright (c) G Vincent, 2018